sensor_id;sensor_type;location;lat;lon;timestamp;P1;durP1;ratioP1;P2;durP2;ratioP2
9138;SDS011;4604;48.616;9.548;2023-04-06T00:00:55;11.53;;;7.10;;
9138;SDS011;4604;48.616;9.548;2023-04-06T00:03:22;11.27;;;7.00;;
9138;SDS011;4604;48.616;9.548;2023-04-06T00:05:49;10.63;;;7.07;;
9138;SDS011;4604;48.616;9.548;2023-04-06T00:08:16;10.43;;;7.00;;
9138;SDS011;4604;48.616;9.548;2023-04-06T00:10:43;10.57;;;6.40;;
9138;SDS011;4604;48.616;9.548;2023-04-06T00:13:10;10.50;;;7.10;;
9138;SDS011;4604;48.616;9.548;2023-04-06T00:15:38;9.60;;;6.70;;
9138;SDS011;4604;48.616;9.548;2023-04-06T00:18:05;8.23;;;5.90;;
9138;SDS011;4604;48.616;9.548;2023-04-06T00:20:32;10.27;;;7.00;;
9138;SDS011;4604;48.616;9.548;2023-04-06T00:22:58;10.23;;;6.83;;
9138;SDS011;4604;48.616;9.548;2023-04-06T00:25:25;11.57;;;6.70;;
9138;SDS011;4604;48.616;9.548;2023-04-06T00:27:52;10.57;;;6.70;;
9138;SDS011;4604;48.616;9.548;2023-04-06T00:30:19;10.03;;;6.40;;
9138;SDS011;4604;48.616;9.548;2023-04-06T00:32:47;13.30;;;7.70;;
9138;SDS011;4604;48.616;9.548;2023-04-06T00:35:14;13.43;;;8.57;;
9138;SDS011;4604;48.616;9.548;2023-04-06T00:37:41;12.60;;;8.30;;
9138;SDS011;4604;48.616;9.548;2023-04-06T00:40:08;13.27;;;6.90;;
9138;SDS011;4604;48.616;9.548;2023-04-06T00:42:36;12.30;;;7.87;;
9138;SDS011;4604;48.616;9.548;2023-04-06T00:45:03;11.37;;;7.17;;
9138;SDS011;4604;48.616;9.548;2023-04-06T00:47:30;16.57;;;8.07;;
9138;SDS011;4604;48.616;9.548;2023-04-06T00:49:59;10.27;;;7.33;;
9138;SDS011;4604;48.616;9.548;2023-04-06T00:52:25;13.47;;;7.33;;
9138;SDS011;4604;48.616;9.548;2023-04-06T00:54:52;14.50;;;8.50;;
9138;SDS011;4604;48.616;9.548;2023-04-06T00:57:19;12.83;;;7.80;;
9138;SDS011;4604;48.616;9.548;2023-04-06T00:59:46;11.20;;;7.30;;
9138;SDS011;4604;48.616;9.548;2023-04-06T01:02:13;9.33;;;6.30;;
9138;SDS011;4604;48.616;9.548;2023-04-06T01:04:40;13.43;;;7.23;;
9138;SDS011;4604;48.616;9.548;2023-04-06T01:07:08;12.87;;;7.53;;
9138;SDS011;4604;48.616;9.548;2023-04-06T01:09:35;11.43;;;7.57;;
9138;SDS011;4604;48.616;9.548;2023-04-06T01:12:03;14.90;;;8.10;;
9138;SDS011;4604;48.616;9.548;2023-04-06T01:14:30;11.97;;;7.17;;
9138;SDS011;4604;48.616;9.548;2023-04-06T01:16:57;11.07;;;7.17;;
9138;SDS011;4604;48.616;9.548;2023-04-06T01:19:24;10.47;;;7.10;;
9138;SDS011;4604;48.616;9.548;2023-04-06T01:21:51;9.20;;;6.33;;
9138;SDS011;4604;48.616;9.548;2023-04-06T01:24:20;10.50;;;7.00;;
9138;SDS011;4604;48.616;9.548;2023-04-06T01:26:47;10.50;;;6.37;;
9138;SDS011;4604;48.616;9.548;2023-04-06T01:29:13;9.73;;;6.33;;
9138;SDS011;4604;48.616;9.548;2023-04-06T01:31:40;10.77;;;6.37;;
9138;SDS011;4604;48.616;9.548;2023-04-06T01:34:07;11.00;;;6.57;;
9138;SDS011;4604;48.616;9.548;2023-04-06T01:36:34;10.60;;;7.13;;
9138;SDS011;4604;48.616;9.548;2023-04-06T01:39:00;12.10;;;6.50;;
9138;SDS011;4604;48.616;9.548;2023-04-06T01:41:28;10.87;;;6.90;;
9138;SDS011;4604;48.616;9.548;2023-04-06T01:43:55;9.90;;;6.47;;
9138;SDS011;4604;48.616;9.548;2023-04-06T01:46:22;10.60;;;6.33;;
9138;SDS011;4604;48.616;9.548;2023-04-06T01:48:49;12.47;;;6.20;;
9138;SDS011;4604;48.616;9.548;2023-04-06T01:51:15;9.73;;;6.30;;
9138;SDS011;4604;48.616;9.548;2023-04-06T01:53:42;8.20;;;5.70;;
9138;SDS011;4604;48.616;9.548;2023-04-06T01:56:09;7.60;;;5.50;;
9138;SDS011;4604;48.616;9.548;2023-04-06T01:58:37;10.77;;;6.60;;
9138;SDS011;4604;48.616;9.548;2023-04-06T02:01:04;8.73;;;5.67;;
9138;SDS011;4604;48.616;9.548;2023-04-06T02:03:31;9.67;;;6.17;;
9138;SDS011;4604;48.616;9.548;2023-04-06T02:05:58;10.63;;;6.40;;
9138;SDS011;4604;48.616;9.548;2023-04-06T02:08:25;9.77;;;6.53;;
9138;SDS011;4604;48.616;9.548;2023-04-06T02:10:51;12.40;;;6.70;;
9138;SDS011;4604;48.616;9.548;2023-04-06T02:13:18;9.03;;;5.87;;
9138;SDS011;4604;48.616;9.548;2023-04-06T02:15:46;10.53;;;6.67;;
9138;SDS011;4604;48.616;9.548;2023-04-06T02:18:13;10.03;;;6.53;;
9138;SDS011;4604;48.616;9.548;2023-04-06T02:20:40;9.47;;;6.07;;
9138;SDS011;4604;48.616;9.548;2023-04-06T02:23:07;12.80;;;6.87;;
9138;SDS011;4604;48.616;9.548;2023-04-06T02:25:34;9.47;;;6.63;;
9138;SDS011;4604;48.616;9.548;2023-04-06T02:28:01;11.87;;;6.87;;
9138;SDS011;4604;48.616;9.548;2023-04-06T02:30:27;10.60;;;6.33;;
9138;SDS011;4604;48.616;9.548;2023-04-06T02:32:56;11.47;;;6.83;;
9138;SDS011;4604;48.616;9.548;2023-04-06T02:35:22;13.63;;;7.60;;
9138;SDS011;4604;48.616;9.548;2023-04-06T02:37:52;12.93;;;7.77;;
9138;SDS011;4604;48.616;9.548;2023-04-06T02:40:19;11.33;;;6.43;;
9138;SDS011;4604;48.616;9.548;2023-04-06T02:42:46;11.83;;;6.80;;
9138;SDS011;4604;48.616;9.548;2023-04-06T02:45:13;9.77;;;6.20;;
9138;SDS011;4604;48.616;9.548;2023-04-06T02:47:41;9.77;;;6.43;;
9138;SDS011;4604;48.616;9.548;2023-04-06T02:50:09;10.10;;;5.97;;
9138;SDS011;4604;48.616;9.548;2023-04-06T02:52:36;10.87;;;6.70;;
9138;SDS011;4604;48.616;9.548;2023-04-06T02:55:03;10.37;;;5.83;;
9138;SDS011;4604;48.616;9.548;2023-04-06T02:57:32;10.87;;;6.17;;
9138;SDS011;4604;48.616;9.548;2023-04-06T02:59:59;9.20;;;5.90;;
9138;SDS011;4604;48.616;9.548;2023-04-06T03:02:26;9.70;;;6.33;;
9138;SDS011;4604;48.616;9.548;2023-04-06T03:04:53;10.80;;;6.33;;
9138;SDS011;4604;48.616;9.548;2023-04-06T03:07:21;13.03;;;6.50;;
9138;SDS011;4604;48.616;9.548;2023-04-06T03:09:47;10.13;;;6.37;;
9138;SDS011;4604;48.616;9.548;2023-04-06T03:12:14;9.10;;;5.83;;
9138;SDS011;4604;48.616;9.548;2023-04-06T03:14:41;11.23;;;7.10;;
9138;SDS011;4604;48.616;9.548;2023-04-06T03:17:08;14.17;;;7.57;;
9138;SDS011;4604;48.616;9.548;2023-04-06T03:19:35;13.10;;;6.90;;
9138;SDS011;4604;48.616;9.548;2023-04-06T03:22:02;10.77;;;7.03;;
9138;SDS011;4604;48.616;9.548;2023-04-06T03:24:30;12.37;;;7.67;;
9138;SDS011;4604;48.616;9.548;2023-04-06T03:26:56;10.57;;;7.10;;
9138;SDS011;4604;48.616;9.548;2023-04-06T03:29:23;11.33;;;6.83;;
9138;SDS011;4604;48.616;9.548;2023-04-06T03:31:50;11.60;;;6.67;;
9138;SDS011;4604;48.616;9.548;2023-04-06T03:34:17;9.17;;;5.73;;
9138;SDS011;4604;48.616;9.548;2023-04-06T03:36:43;10.07;;;6.30;;
9138;SDS011;4604;48.616;9.548;2023-04-06T03:39:10;9.50;;;6.07;;
9138;SDS011;4604;48.616;9.548;2023-04-06T03:41:38;12.40;;;6.93;;
9138;SDS011;4604;48.616;9.548;2023-04-06T03:44:05;11.57;;;6.70;;
9138;SDS011;4604;48.616;9.548;2023-04-06T03:46:32;12.30;;;6.80;;
9138;SDS011;4604;48.616;9.548;2023-04-06T03:48:58;10.23;;;6.77;;
9138;SDS011;4604;48.616;9.548;2023-04-06T03:51:25;10.63;;;6.53;;
9138;SDS011;4604;48.616;9.548;2023-04-06T03:53:53;12.00;;;6.57;;
9138;SDS011;4604;48.616;9.548;2023-04-06T03:56:20;10.00;;;6.00;;
9138;SDS011;4604;48.616;9.548;2023-04-06T03:58:48;10.80;;;6.30;;
9138;SDS011;4604;48.616;9.548;2023-04-06T04:01:15;12.30;;;6.87;;
9138;SDS011;4604;48.616;9.548;2023-04-06T04:03:42;11.80;;;6.67;;
9138;SDS011;4604;48.616;9.548;2023-04-06T04:06:09;10.90;;;6.40;;
9138;SDS011;4604;48.616;9.548;2023-04-06T04:08:36;10.93;;;6.93;;
9138;SDS011;4604;48.616;9.548;2023-04-06T04:11:02;11.43;;;7.30;;
9138;SDS011;4604;48.616;9.548;2023-04-06T04:13:29;11.27;;;7.13;;
9138;SDS011;4604;48.616;9.548;2023-04-06T04:15:57;12.43;;;7.40;;
9138;SDS011;4604;48.616;9.548;2023-04-06T04:18:24;11.27;;;7.13;;
9138;SDS011;4604;48.616;9.548;2023-04-06T04:20:51;11.27;;;7.10;;
9138;SDS011;4604;48.616;9.548;2023-04-06T04:23:18;12.33;;;7.53;;
9138;SDS011;4604;48.616;9.548;2023-04-06T04:25:45;12.33;;;7.00;;
9138;SDS011;4604;48.616;9.548;2023-04-06T04:28:11;11.50;;;7.10;;
9138;SDS011;4604;48.616;9.548;2023-04-06T04:30:38;13.37;;;7.57;;
9138;SDS011;4604;48.616;9.548;2023-04-06T04:33:06;11.63;;;7.13;;
9138;SDS011;4604;48.616;9.548;2023-04-06T04:35:33;12.87;;;8.30;;
9138;SDS011;4604;48.616;9.548;2023-04-06T04:37:59;10.93;;;7.50;;
9138;SDS011;4604;48.616;9.548;2023-04-06T04:40:26;11.67;;;7.37;;
9138;SDS011;4604;48.616;9.548;2023-04-06T04:42:55;12.57;;;7.23;;
9138;SDS011;4604;48.616;9.548;2023-04-06T04:45:22;14.87;;;8.63;;
9138;SDS011;4604;48.616;9.548;2023-04-06T04:47:48;12.57;;;6.67;;
9138;SDS011;4604;48.616;9.548;2023-04-06T04:50:16;12.13;;;7.37;;
9138;SDS011;4604;48.616;9.548;2023-04-06T04:52:43;10.03;;;6.80;;
9138;SDS011;4604;48.616;9.548;2023-04-06T04:55:10;12.63;;;7.23;;
9138;SDS011;4604;48.616;9.548;2023-04-06T04:57:37;14.43;;;7.47;;
9138;SDS011;4604;48.616;9.548;2023-04-06T05:00:04;14.07;;;7.27;;
9138;SDS011;4604;48.616;9.548;2023-04-06T05:02:31;16.63;;;7.90;;
9138;SDS011;4604;48.616;9.548;2023-04-06T05:04:58;11.97;;;7.43;;
9138;SDS011;4604;48.616;9.548;2023-04-06T05:07:26;13.90;;;8.13;;
9138;SDS011;4604;48.616;9.548;2023-04-06T05:09:53;13.40;;;7.40;;
9138;SDS011;4604;48.616;9.548;2023-04-06T05:12:19;12.87;;;8.07;;
9138;SDS011;4604;48.616;9.548;2023-04-06T05:14:47;14.03;;;7.80;;
9138;SDS011;4604;48.616;9.548;2023-04-06T05:17:14;13.20;;;7.30;;
9138;SDS011;4604;48.616;9.548;2023-04-06T05:19:41;16.33;;;8.17;;
9138;SDS011;4604;48.616;9.548;2023-04-06T05:22:07;13.30;;;7.47;;
9138;SDS011;4604;48.616;9.548;2023-04-06T05:24:35;11.77;;;7.57;;
9138;SDS011;4604;48.616;9.548;2023-04-06T05:27:02;14.10;;;7.17;;
9138;SDS011;4604;48.616;9.548;2023-04-06T05:29:29;13.30;;;8.03;;
9138;SDS011;4604;48.616;9.548;2023-04-06T05:31:56;16.17;;;8.43;;
9138;SDS011;4604;48.616;9.548;2023-04-06T05:34:23;12.67;;;7.77;;
9138;SDS011;4604;48.616;9.548;2023-04-06T05:36:50;14.57;;;8.67;;
9138;SDS011;4604;48.616;9.548;2023-04-06T05:39:16;12.87;;;7.63;;
9138;SDS011;4604;48.616;9.548;2023-04-06T05:41:45;14.67;;;8.37;;
9138;SDS011;4604;48.616;9.548;2023-04-06T05:44:11;13.03;;;7.97;;
9138;SDS011;4604;48.616;9.548;2023-04-06T05:46:38;12.10;;;7.67;;
9138;SDS011;4604;48.616;9.548;2023-04-06T05:49:05;14.93;;;8.17;;
9138;SDS011;4604;48.616;9.548;2023-04-06T05:51:32;14.33;;;8.73;;
9138;SDS011;4604;48.616;9.548;2023-04-06T05:53:58;14.70;;;8.17;;
9138;SDS011;4604;48.616;9.548;2023-04-06T05:56:27;14.60;;;8.10;;
9138;SDS011;4604;48.616;9.548;2023-04-06T05:58:56;11.00;;;7.40;;
9138;SDS011;4604;48.616;9.548;2023-04-06T06:01:23;13.07;;;7.37;;
9138;SDS011;4604;48.616;9.548;2023-04-06T06:03:50;12.90;;;7.97;;
9138;SDS011;4604;48.616;9.548;2023-04-06T06:06:17;14.40;;;8.03;;
9138;SDS011;4604;48.616;9.548;2023-04-06T06:08:43;16.03;;;9.67;;
9138;SDS011;4604;48.616;9.548;2023-04-06T06:11:10;20.37;;;9.77;;
9138;SDS011;4604;48.616;9.548;2023-04-06T06:13:37;17.33;;;9.23;;
9138;SDS011;4604;48.616;9.548;2023-04-06T06:16:05;16.27;;;8.33;;
9138;SDS011;4604;48.616;9.548;2023-04-06T06:18:32;16.20;;;9.73;;
9138;SDS011;4604;48.616;9.548;2023-04-06T06:20:59;14.93;;;8.50;;
9138;SDS011;4604;48.616;9.548;2023-04-06T06:23:26;14.93;;;9.67;;
9138;SDS011;4604;48.616;9.548;2023-04-06T06:25:53;20.40;;;10.87;;
9138;SDS011;4604;48.616;9.548;2023-04-06T06:28:21;16.30;;;8.80;;
9138;SDS011;4604;48.616;9.548;2023-04-06T06:30:48;14.57;;;9.03;;
9138;SDS011;4604;48.616;9.548;2023-04-06T06:33:16;17.37;;;9.67;;
9138;SDS011;4604;48.616;9.548;2023-04-06T06:35:43;15.93;;;8.57;;
9138;SDS011;4604;48.616;9.548;2023-04-06T06:38:10;14.37;;;8.80;;
9138;SDS011;4604;48.616;9.548;2023-04-06T06:40:36;12.20;;;7.83;;
9138;SDS011;4604;48.616;9.548;2023-04-06T06:43:03;12.07;;;7.40;;
9138;SDS011;4604;48.616;9.548;2023-04-06T06:45:30;10.00;;;6.73;;
9138;SDS011;4604;48.616;9.548;2023-04-06T06:47:58;13.63;;;7.73;;
9138;SDS011;4604;48.616;9.548;2023-04-06T06:50:26;17.27;;;8.97;;
9138;SDS011;4604;48.616;9.548;2023-04-06T06:52:53;15.53;;;8.10;;
9138;SDS011;4604;48.616;9.548;2023-04-06T06:55:20;12.73;;;7.60;;
9138;SDS011;4604;48.616;9.548;2023-04-06T06:57:47;16.43;;;9.10;;
9138;SDS011;4604;48.616;9.548;2023-04-06T07:00:16;11.57;;;7.60;;
9138;SDS011;4604;48.616;9.548;2023-04-06T07:02:45;13.03;;;8.20;;
9138;SDS011;4604;48.616;9.548;2023-04-06T07:05:12;16.23;;;9.83;;
9138;SDS011;4604;48.616;9.548;2023-04-06T07:07:40;15.10;;;9.63;;
9138;SDS011;4604;48.616;9.548;2023-04-06T07:10:07;15.83;;;9.97;;
9138;SDS011;4604;48.616;9.548;2023-04-06T07:12:34;17.03;;;10.07;;
9138;SDS011;4604;48.616;9.548;2023-04-06T07:15:01;17.03;;;10.37;;
9138;SDS011;4604;48.616;9.548;2023-04-06T07:17:28;18.03;;;10.97;;
9138;SDS011;4604;48.616;9.548;2023-04-06T07:19:55;17.17;;;10.33;;
9138;SDS011;4604;48.616;9.548;2023-04-06T07:22:21;18.73;;;11.43;;
9138;SDS011;4604;48.616;9.548;2023-04-06T07:24:49;16.47;;;10.40;;
9138;SDS011;4604;48.616;9.548;2023-04-06T07:27:16;17.13;;;10.20;;
9138;SDS011;4604;48.616;9.548;2023-04-06T07:29:43;17.40;;;9.87;;
9138;SDS011;4604;48.616;9.548;2023-04-06T07:32:10;14.80;;;9.50;;
9138;SDS011;4604;48.616;9.548;2023-04-06T07:34:37;18.90;;;9.93;;
9138;SDS011;4604;48.616;9.548;2023-04-06T07:37:03;15.87;;;9.53;;
9138;SDS011;4604;48.616;9.548;2023-04-06T07:39:30;14.07;;;8.97;;
9138;SDS011;4604;48.616;9.548;2023-04-06T07:41:58;14.07;;;8.97;;
9138;SDS011;4604;48.616;9.548;2023-04-06T07:44:25;15.43;;;9.83;;
9138;SDS011;4604;48.616;9.548;2023-04-06T07:46:54;15.57;;;9.90;;
9138;SDS011;4604;48.616;9.548;2023-04-06T07:49:21;15.50;;;10.00;;
9138;SDS011;4604;48.616;9.548;2023-04-06T07:51:48;16.87;;;10.47;;
9138;SDS011;4604;48.616;9.548;2023-04-06T07:54:14;20.33;;;10.47;;
9138;SDS011;4604;48.616;9.548;2023-04-06T07:56:41;15.93;;;9.00;;
9138;SDS011;4604;48.616;9.548;2023-04-06T07:59:09;14.80;;;8.77;;
9138;SDS011;4604;48.616;9.548;2023-04-06T08:01:36;12.93;;;8.07;;
9138;SDS011;4604;48.616;9.548;2023-04-06T08:04:03;14.27;;;9.13;;
9138;SDS011;4604;48.616;9.548;2023-04-06T08:06:30;17.70;;;9.53;;
9138;SDS011;4604;48.616;9.548;2023-04-06T08:08:57;13.40;;;9.33;;
9138;SDS011;4604;48.616;9.548;2023-04-06T08:11:24;14.60;;;9.50;;
9138;SDS011;4604;48.616;9.548;2023-04-06T08:13:51;13.87;;;8.67;;
9138;SDS011;4604;48.616;9.548;2023-04-06T08:16:19;14.83;;;9.30;;
9138;SDS011;4604;48.616;9.548;2023-04-06T08:18:46;22.57;;;9.70;;
9138;SDS011;4604;48.616;9.548;2023-04-06T08:21:13;20.63;;;9.70;;
9138;SDS011;4604;48.616;9.548;2023-04-06T08:23:40;13.63;;;8.83;;
9138;SDS011;4604;48.616;9.548;2023-04-06T08:26:06;14.67;;;9.27;;
9138;SDS011;4604;48.616;9.548;2023-04-06T08:28:33;16.20;;;9.97;;
9138;SDS011;4604;48.616;9.548;2023-04-06T08:31:02;13.47;;;9.23;;
9138;SDS011;4604;48.616;9.548;2023-04-06T08:33:31;15.77;;;10.10;;
9138;SDS011;4604;48.616;9.548;2023-04-06T08:36:06;15.80;;;9.17;;
9138;SDS011;4604;48.616;9.548;2023-04-06T08:38:33;15.30;;;9.47;;
9138;SDS011;4604;48.616;9.548;2023-04-06T08:41:00;15.03;;;9.47;;
9138;SDS011;4604;48.616;9.548;2023-04-06T08:43:33;12.80;;;8.80;;
9138;SDS011;4604;48.616;9.548;2023-04-06T08:46:05;19.00;;;9.73;;
9138;SDS011;4604;48.616;9.548;2023-04-06T08:48:33;19.17;;;9.10;;
9138;SDS011;4604;48.616;9.548;2023-04-06T08:51:02;16.20;;;8.93;;
9138;SDS011;4604;48.616;9.548;2023-04-06T08:53:29;14.73;;;8.90;;
9138;SDS011;4604;48.616;9.548;2023-04-06T08:55:56;13.60;;;8.50;;
9138;SDS011;4604;48.616;9.548;2023-04-06T08:58:24;16.40;;;9.27;;
9138;SDS011;4604;48.616;9.548;2023-04-06T09:00:55;13.17;;;8.30;;
9138;SDS011;4604;48.616;9.548;2023-04-06T09:03:22;20.37;;;8.77;;
9138;SDS011;4604;48.616;9.548;2023-04-06T09:05:51;14.37;;;9.00;;
9138;SDS011;4604;48.616;9.548;2023-04-06T09:08:18;15.10;;;9.33;;
9138;SDS011;4604;48.616;9.548;2023-04-06T09:10:45;13.63;;;8.33;;
9138;SDS011;4604;48.616;9.548;2023-04-06T09:13:12;15.67;;;9.03;;
9138;SDS011;4604;48.616;9.548;2023-04-06T09:15:39;17.93;;;9.13;;
9138;SDS011;4604;48.616;9.548;2023-04-06T09:18:06;14.73;;;9.03;;
9138;SDS011;4604;48.616;9.548;2023-04-06T09:20:33;18.03;;;8.77;;
9138;SDS011;4604;48.616;9.548;2023-04-06T09:23:01;15.87;;;8.97;;
9138;SDS011;4604;48.616;9.548;2023-04-06T09:25:28;17.57;;;9.77;;
9138;SDS011;4604;48.616;9.548;2023-04-06T09:27:59;17.53;;;9.03;;
9138;SDS011;4604;48.616;9.548;2023-04-06T09:30:27;16.40;;;9.40;;
9138;SDS011;4604;48.616;9.548;2023-04-06T09:32:55;16.63;;;9.00;;
9138;SDS011;4604;48.616;9.548;2023-04-06T09:35:24;14.27;;;9.40;;
9138;SDS011;4604;48.616;9.548;2023-04-06T09:37:52;15.07;;;9.57;;
9138;SDS011;4604;48.616;9.548;2023-04-06T09:40:21;14.17;;;8.70;;
9138;SDS011;4604;48.616;9.548;2023-04-06T09:42:49;17.20;;;9.47;;
9138;SDS011;4604;48.616;9.548;2023-04-06T09:45:19;12.07;;;7.90;;
9138;SDS011;4604;48.616;9.548;2023-04-06T09:47:46;14.60;;;8.40;;
9138;SDS011;4604;48.616;9.548;2023-04-06T09:50:14;11.87;;;7.93;;
9138;SDS011;4604;48.616;9.548;2023-04-06T09:52:42;13.30;;;8.03;;
9138;SDS011;4604;48.616;9.548;2023-04-06T09:55:16;12.77;;;7.07;;
9138;SDS011;4604;48.616;9.548;2023-04-06T09:57:50;11.70;;;7.30;;
9138;SDS011;4604;48.616;9.548;2023-04-06T10:00:22;11.10;;;7.47;;
9138;SDS011;4604;48.616;9.548;2023-04-06T10:02:54;13.47;;;8.50;;
9138;SDS011;4604;48.616;9.548;2023-04-06T10:05:27;13.80;;;7.50;;
9138;SDS011;4604;48.616;9.548;2023-04-06T10:08:01;11.13;;;7.40;;
9138;SDS011;4604;48.616;9.548;2023-04-06T10:10:32;10.27;;;6.83;;
9138;SDS011;4604;48.616;9.548;2023-04-06T10:13:00;11.97;;;7.27;;
9138;SDS011;4604;48.616;9.548;2023-04-06T10:15:28;11.37;;;7.30;;
9138;SDS011;4604;48.616;9.548;2023-04-06T10:17:55;12.43;;;8.10;;
9138;SDS011;4604;48.616;9.548;2023-04-06T10:20:23;11.90;;;7.37;;
9138;SDS011;4604;48.616;9.548;2023-04-06T10:22:55;11.73;;;7.90;;
9138;SDS011;4604;48.616;9.548;2023-04-06T10:25:28;11.90;;;8.00;;
9138;SDS011;4604;48.616;9.548;2023-04-06T10:28:01;12.20;;;8.10;;
9138;SDS011;4604;48.616;9.548;2023-04-06T10:30:32;13.07;;;8.40;;
9138;SDS011;4604;48.616;9.548;2023-04-06T10:32:59;13.40;;;8.47;;
9138;SDS011;4604;48.616;9.548;2023-04-06T10:35:36;11.77;;;8.10;;
9138;SDS011;4604;48.616;9.548;2023-04-06T10:38:03;14.13;;;8.27;;
9138;SDS011;4604;48.616;9.548;2023-04-06T10:40:30;12.57;;;7.97;;
9138;SDS011;4604;48.616;9.548;2023-04-06T10:43:08;13.47;;;7.40;;
9138;SDS011;4604;48.616;9.548;2023-04-06T10:45:36;13.37;;;8.20;;
9138;SDS011;4604;48.616;9.548;2023-04-06T10:48:13;16.87;;;8.83;;
9138;SDS011;4604;48.616;9.548;2023-04-06T10:50:41;13.23;;;8.17;;
9138;SDS011;4604;48.616;9.548;2023-04-06T10:53:08;13.17;;;7.90;;
9138;SDS011;4604;48.616;9.548;2023-04-06T10:55:35;12.80;;;7.80;;
9138;SDS011;4604;48.616;9.548;2023-04-06T10:58:07;13.17;;;8.70;;
9138;SDS011;4604;48.616;9.548;2023-04-06T11:00:34;15.13;;;8.70;;
9138;SDS011;4604;48.616;9.548;2023-04-06T11:03:01;12.10;;;8.30;;
9138;SDS011;4604;48.616;9.548;2023-04-06T11:05:28;13.17;;;8.43;;
9138;SDS011;4604;48.616;9.548;2023-04-06T11:07:55;12.73;;;8.43;;
9138;SDS011;4604;48.616;9.548;2023-04-06T11:10:22;13.63;;;7.83;;
9138;SDS011;4604;48.616;9.548;2023-04-06T11:12:52;14.53;;;8.40;;
9138;SDS011;4604;48.616;9.548;2023-04-06T11:15:21;11.13;;;8.10;;
9138;SDS011;4604;48.616;9.548;2023-04-06T11:17:47;11.63;;;8.50;;
9138;SDS011;4604;48.616;9.548;2023-04-06T11:20:15;12.67;;;8.27;;
9138;SDS011;4604;48.616;9.548;2023-04-06T11:22:49;14.87;;;8.73;;
9138;SDS011;4604;48.616;9.548;2023-04-06T11:25:16;14.77;;;9.07;;
9138;SDS011;4604;48.616;9.548;2023-04-06T11:27:44;12.17;;;8.53;;
9138;SDS011;4604;48.616;9.548;2023-04-06T11:30:12;14.47;;;8.83;;
9138;SDS011;4604;48.616;9.548;2023-04-06T11:32:41;13.73;;;8.70;;
9138;SDS011;4604;48.616;9.548;2023-04-06T11:35:10;14.03;;;8.17;;
9138;SDS011;4604;48.616;9.548;2023-04-06T11:37:38;14.07;;;8.37;;
9138;SDS011;4604;48.616;9.548;2023-04-06T11:40:07;12.50;;;7.97;;
9138;SDS011;4604;48.616;9.548;2023-04-06T11:42:34;13.03;;;7.83;;
9138;SDS011;4604;48.616;9.548;2023-04-06T11:45:01;13.53;;;8.03;;
9138;SDS011;4604;48.616;9.548;2023-04-06T11:47:29;12.60;;;8.00;;
9138;SDS011;4604;48.616;9.548;2023-04-06T11:50:06;11.63;;;7.97;;
9138;SDS011;4604;48.616;9.548;2023-04-06T11:52:33;11.33;;;7.80;;
9138;SDS011;4604;48.616;9.548;2023-04-06T11:55:10;14.50;;;8.70;;
9138;SDS011;4604;48.616;9.548;2023-04-06T11:57:38;12.23;;;8.20;;
9138;SDS011;4604;48.616;9.548;2023-04-06T12:00:05;12.73;;;8.07;;
9138;SDS011;4604;48.616;9.548;2023-04-06T12:02:33;10.47;;;7.47;;
9138;SDS011;4604;48.616;9.548;2023-04-06T12:05:00;12.70;;;8.40;;
9138;SDS011;4604;48.616;9.548;2023-04-06T12:07:28;13.73;;;9.07;;
9138;SDS011;4604;48.616;9.548;2023-04-06T12:09:55;11.70;;;7.50;;
9138;SDS011;4604;48.616;9.548;2023-04-06T12:12:21;10.85;;;7.53;;
9138;SDS011;4604;48.616;9.548;2023-04-06T12:14:48;11.90;;;8.13;;
9138;SDS011;4604;48.616;9.548;2023-04-06T12:17:15;11.00;;;7.68;;
9138;SDS011;4604;48.616;9.548;2023-04-06T12:19:42;10.17;;;7.50;;
9138;SDS011;4604;48.616;9.548;2023-04-06T12:22:08;9.97;;;7.33;;
9138;SDS011;4604;48.616;9.548;2023-04-06T12:24:37;11.20;;;8.27;;
9138;SDS011;4604;48.616;9.548;2023-04-06T12:27:03;12.45;;;8.25;;
9138;SDS011;4604;48.616;9.548;2023-04-06T12:29:30;10.10;;;7.17;;
9138;SDS011;4604;48.616;9.548;2023-04-06T12:31:57;10.93;;;7.47;;
9138;SDS011;4604;48.616;9.548;2023-04-06T12:34:23;12.48;;;7.85;;
9138;SDS011;4604;48.616;9.548;2023-04-06T12:36:52;12.55;;;7.93;;
9138;SDS011;4604;48.616;9.548;2023-04-06T12:39:18;11.27;;;8.13;;
9138;SDS011;4604;48.616;9.548;2023-04-06T12:41:48;10.97;;;7.77;;
9138;SDS011;4604;48.616;9.548;2023-04-06T12:44:15;10.87;;;7.33;;
9138;SDS011;4604;48.616;9.548;2023-04-06T12:46:41;10.35;;;7.10;;
9138;SDS011;4604;48.616;9.548;2023-04-06T12:49:08;9.90;;;6.97;;
9138;SDS011;4604;48.616;9.548;2023-04-06T12:51:36;9.93;;;7.50;;
9138;SDS011;4604;48.616;9.548;2023-04-06T12:54:02;10.43;;;7.40;;
9138;SDS011;4604;48.616;9.548;2023-04-06T12:56:29;10.23;;;7.30;;
9138;SDS011;4604;48.616;9.548;2023-04-06T12:58:59;10.00;;;6.83;;
9138;SDS011;4604;48.616;9.548;2023-04-06T13:01:26;12.82;;;7.75;;
9138;SDS011;4604;48.616;9.548;2023-04-06T13:03:53;9.98;;;6.80;;
9138;SDS011;4604;48.616;9.548;2023-04-06T13:06:22;10.18;;;6.38;;
9138;SDS011;4604;48.616;9.548;2023-04-06T13:08:52;11.27;;;7.35;;
9138;SDS011;4604;48.616;9.548;2023-04-06T13:11:19;11.98;;;7.00;;
9138;SDS011;4604;48.616;9.548;2023-04-06T13:13:49;9.32;;;7.25;;
9138;SDS011;4604;48.616;9.548;2023-04-06T13:16:17;11.43;;;6.68;;
9138;SDS011;4604;48.616;9.548;2023-04-06T13:18:44;9.10;;;6.23;;
9138;SDS011;4604;48.616;9.548;2023-04-06T13:21:13;10.07;;;6.57;;
9138;SDS011;4604;48.616;9.548;2023-04-06T13:23:41;10.07;;;6.82;;
9138;SDS011;4604;48.616;9.548;2023-04-06T13:26:07;11.45;;;7.28;;
9138;SDS011;4604;48.616;9.548;2023-04-06T13:28:36;12.23;;;7.93;;
9138;SDS011;4604;48.616;9.548;2023-04-06T13:31:04;10.70;;;7.10;;
9138;SDS011;4604;48.616;9.548;2023-04-06T13:33:32;10.13;;;6.90;;
9138;SDS011;4604;48.616;9.548;2023-04-06T13:35:59;9.07;;;6.20;;
9138;SDS011;4604;48.616;9.548;2023-04-06T13:38:26;11.77;;;7.10;;
9138;SDS011;4604;48.616;9.548;2023-04-06T13:40:53;10.73;;;6.77;;
9138;SDS011;4604;48.616;9.548;2023-04-06T13:43:21;10.23;;;7.13;;
9138;SDS011;4604;48.616;9.548;2023-04-06T13:45:49;9.63;;;7.13;;
9138;SDS011;4604;48.616;9.548;2023-04-06T13:48:16;9.57;;;6.83;;
9138;SDS011;4604;48.616;9.548;2023-04-06T13:50:45;9.95;;;6.47;;
9138;SDS011;4604;48.616;9.548;2023-04-06T13:53:12;9.43;;;6.07;;
9138;SDS011;4604;48.616;9.548;2023-04-06T13:55:39;15.50;;;6.67;;
9138;SDS011;4604;48.616;9.548;2023-04-06T13:58:06;10.33;;;6.33;;
9138;SDS011;4604;48.616;9.548;2023-04-06T14:00:32;10.03;;;6.60;;
9138;SDS011;4604;48.616;9.548;2023-04-06T14:02:59;13.00;;;6.88;;
9138;SDS011;4604;48.616;9.548;2023-04-06T14:05:26;8.65;;;6.13;;
9138;SDS011;4604;48.616;9.548;2023-04-06T14:07:58;9.73;;;5.63;;
9138;SDS011;4604;48.616;9.548;2023-04-06T14:10:25;11.97;;;6.87;;
9138;SDS011;4604;48.616;9.548;2023-04-06T14:12:52;9.70;;;6.05;;
9138;SDS011;4604;48.616;9.548;2023-04-06T14:15:19;11.60;;;6.03;;
9138;SDS011;4604;48.616;9.548;2023-04-06T14:17:46;11.00;;;6.68;;
9138;SDS011;4604;48.616;9.548;2023-04-06T14:20:13;10.20;;;6.22;;
9138;SDS011;4604;48.616;9.548;2023-04-06T14:22:40;8.80;;;6.30;;
9138;SDS011;4604;48.616;9.548;2023-04-06T14:25:09;10.50;;;5.57;;
9138;SDS011;4604;48.616;9.548;2023-04-06T14:27:36;9.70;;;6.10;;
9138;SDS011;4604;48.616;9.548;2023-04-06T14:30:03;8.18;;;5.80;;
9138;SDS011;4604;48.616;9.548;2023-04-06T14:32:30;8.80;;;5.75;;
9138;SDS011;4604;48.616;9.548;2023-04-06T14:34:57;9.57;;;5.82;;
9138;SDS011;4604;48.616;9.548;2023-04-06T14:37:24;9.98;;;5.90;;
9138;SDS011;4604;48.616;9.548;2023-04-06T14:39:51;7.97;;;5.77;;
9138;SDS011;4604;48.616;9.548;2023-04-06T14:42:19;12.80;;;5.80;;
9138;SDS011;4604;48.616;9.548;2023-04-06T14:44:45;8.57;;;5.50;;
9138;SDS011;4604;48.616;9.548;2023-04-06T14:47:13;10.87;;;5.80;;
9138;SDS011;4604;48.616;9.548;2023-04-06T14:49:45;7.35;;;5.05;;
9138;SDS011;4604;48.616;9.548;2023-04-06T14:52:11;12.48;;;5.65;;
9138;SDS011;4604;48.616;9.548;2023-04-06T14:54:38;6.57;;;4.93;;
9138;SDS011;4604;48.616;9.548;2023-04-06T14:57:05;8.73;;;5.28;;
9138;SDS011;4604;48.616;9.548;2023-04-06T14:59:33;10.63;;;5.75;;
9138;SDS011;4604;48.616;9.548;2023-04-06T15:02:00;7.13;;;5.43;;
9138;SDS011;4604;48.616;9.548;2023-04-06T15:04:28;7.15;;;5.07;;